Time;durP1;ratioP1;P1;durP2;ratioP2;P2;SDS_P1;SDS_P2;PMS_P1;PMS_P2;Temp;Humidity;BMP_temperature;BMP_pressure;BME280_temperature;BME280_humidity;BME280_pressure;Samples;Min_cycle;Max_cycle;Signal;HPM_P1;HPM_P2
2021/08/15 00:02:53;;;;;;;13.60;10.17;;;;;;;19.79;80.24;100516.81;20740400;28;20467;-71
2021/08/15 00:12:55;;;;;;;18.38;11.07;;;;;;;19.67;81.07;100505.00;20748501;28;20515;-70
2021/08/15 00:22:57;;;;;;;18.90;11.20;;;;;;;19.83;79.86;100501.53;20747565;28;20057;-71
2021/08/15 00:32:58;;;;;;;13.63;9.93;;;;;;;19.80;79.78;100493.75;20745916;28;20066;-70
2021/08/15 00:43:00;;;;;;;14.32;10.38;;;;;;;19.66;81.10;100503.28;20747407;28;20049;-71
2021/08/15 00:53:02;;;;;;;15.05;10.68;;;;;;;19.69;80.27;100499.59;20746570;28;20107;-70
2021/08/15 01:03:04;;;;;;;15.23;10.95;;;;;;;19.61;80.45;100485.88;20744841;28;20100;-70
2021/08/15 01:13:06;;;;;;;16.60;11.48;;;;;;;19.53;79.80;100483.56;20742832;28;20460;-71
2021/08/15 01:23:08;;;;;;;14.02;10.15;;;;;;;19.66;77.09;100479.38;20743347;28;20050;-71
2021/08/15 01:33:11;;;;;;;13.95;9.20;;;;;;;19.83;75.17;100485.59;20742956;28;20073;-71
2021/08/15 01:43:13;;;;;;;13.02;8.70;;;;;;;19.76;74.82;100492.19;20742859;28;20046;-70
2021/08/15 01:53:18;;;;;;;13.40;8.95;;;;;;;19.79;73.56;100481.41;20742223;28;20050;-70
2021/08/15 02:03:20;;;;;;;;;;;;;;;19.56;73.52;100486.09;20737155;28;20100;-70
2021/08/15 02:13:22;;;;;;;15.68;8.55;;;;;;;19.55;72.62;100479.06;20738892;28;20299;-70
2021/08/15 02:23:23;;;;;;;13.73;7.97;;;;;;;19.43;72.47;100474.38;20738175;28;20100;-70
2021/08/15 02:33:25;;;;;;;12.82;8.52;;;;;;;19.40;71.73;100471.84;20736792;28;20504;-70
2021/08/15 02:43:27;;;;;;;11.60;7.68;;;;;;;19.48;70.63;100470.53;20737824;28;20512;-70
2021/08/15 02:53:29;;;;;;;12.52;7.18;;;;;;;19.29;71.37;100467.09;20736750;28;20112;-70
2021/08/15 03:03:30;;;;;;;13.48;7.88;;;;;;;19.29;70.15;100453.81;20736756;28;20053;-70
2021/08/15 03:13:32;;;;;;;10.60;6.43;;;;;;;19.09;70.46;100436.25;20736098;28;20128;-70
2021/08/15 03:23:34;;;;;;;13.95;7.20;;;;;;;19.11;70.37;100437.03;20736700;28;20050;-70
2021/08/15 03:33:36;;;;;;;12.02;7.00;;;;;;;18.79;72.36;100436.00;20735682;28;20416;-71
2021/08/15 03:43:37;;;;;;;13.43;7.25;;;;;;;18.74;72.28;100439.81;20750962;28;20073;-71
2021/08/15 03:53:39;;;;;;;12.25;6.82;;;;;;;18.72;72.55;100442.53;20750330;28;20058;-71
2021/08/15 04:03:42;;;;;;;13.15;7.30;;;;;;;18.64;73.62;100444.69;20748513;28;20108;-70
2021/08/15 04:13:44;;;;;;;12.27;6.70;;;;;;;18.75;73.50;100446.84;20748018;28;20042;-70
2021/08/15 04:23:46;;;;;;;10.98;6.60;;;;;;;18.78;73.04;100457.28;20747740;28;20057;-71
2021/08/15 04:33:48;;;;;;;13.07;6.45;;;;;;;18.73;73.09;100454.00;20746712;28;20072;-71
2021/08/15 04:43:50;;;;;;;13.95;6.65;;;;;;;18.79;73.17;100448.41;20746202;28;20132;-70
2021/08/15 04:53:52;;;;;;;10.55;5.95;;;;;;;18.85;71.58;100448.97;20744895;28;20104;-70
2021/08/15 05:03:54;;;;;;;10.32;6.30;;;;;;;19.08;70.23;100455.78;20743939;28;20057;-70
2021/08/15 05:13:56;;;;;;;10.73;5.93;;;;;;;19.10;69.32;100453.03;20744753;28;20081;-70
2021/08/15 05:23:58;;;;;;;11.55;5.78;;;;;;;19.15;69.05;100441.25;20725776;28;20046;-70
2021/08/15 05:34:00;;;;;;;12.07;6.00;;;;;;;19.19;68.18;100442.81;20741413;28;20107;-70
2021/08/15 05:44:02;;;;;;;12.10;5.93;;;;;;;19.31;66.59;100440.50;20741864;28;20432;-69
2021/08/15 05:54:04;;;;;;;10.30;4.70;;;;;;;19.51;65.64;100432.34;20740570;28;20054;-70
2021/08/15 06:04:05;;;;;;;9.48;4.38;;;;;;;19.72;65.15;100431.25;20739080;28;20611;-70
2021/08/15 06:14:07;;;;;;;10.80;4.63;;;;;;;19.98;63.35;100421.03;20723164;28;20054;-70
2021/08/15 06:24:09;;;;;;;11.90;5.15;;;;;;;20.15;63.18;100410.31;20658287;28;20050;-70
2021/08/15 06:34:11;;;;;;;10.95;4.97;;;;;;;20.29;63.13;100414.88;20658114;28;20054;-70
2021/08/15 06:44:13;;;;;;;12.20;4.60;;;;;;;20.51;61.89;100413.72;20658444;28;20645;-70
2021/08/15 06:54:14;;;;;;;12.18;5.30;;;;;;;20.77;61.57;100409.53;20654819;28;20050;-70
2021/08/15 07:04:16;;;;;;;10.18;4.68;;;;;;;20.97;60.43;100411.91;20670317;28;20101;-70
2021/08/15 07:14:18;;;;;;;11.07;4.82;;;;;;;21.24;61.50;100399.63;20698146;28;20183;-70
2021/08/15 07:24:19;;;;;;;11.57;5.30;;;;;;;21.62;58.65;100393.81;20687461;28;20054;-69
2021/08/15 07:34:21;;;;;;;12.20;4.93;;;;;;;21.80;59.30;100405.13;20666537;28;20050;-70
2021/08/15 07:44:23;;;;;;;11.18;4.75;;;;;;;21.95;57.62;100390.00;20737773;28;20049;-70
2021/08/15 07:54:24;;;;;;;11.43;4.60;;;;;;;22.33;57.76;100400.06;20746928;28;20100;-71
2021/08/15 08:04:26;;;;;;;10.32;4.28;;;;;;;22.43;58.19;100401.16;20746214;28;20403;-70
2021/08/15 08:14:28;;;;;;;9.17;4.07;;;;;;;22.61;57.47;100394.59;20673103;28;1090300;-70
2021/08/15 08:24:30;;;;;;;11.45;5.00;;;;;;;23.13;56.23;100383.13;20668444;28;20046;-71
2021/08/15 08:34:32;;;;;;;10.68;4.78;;;;;;;23.28;54.62;100374.09;20667917;28;20054;-71
2021/08/15 08:44:35;;;;;;;10.27;4.38;;;;;;;23.59;53.36;100361.25;20667276;28;20058;-71
2021/08/15 08:54:37;;;;;;;9.37;4.47;;;;;;;23.96;52.04;100338.13;20666349;28;20058;-69
2021/08/15 09:04:39;;;;;;;8.93;4.40;;;;;;;24.27;52.02;100323.34;20729428;28;20081;-70
2021/08/15 09:14:41;;;;;;;8.65;4.38;;;;;;;24.46;50.45;100325.53;20744447;28;20478;-69
2021/08/15 09:25:11;;;;;;;12.15;4.53;;;;;;;24.88;48.45;100317.06;20744166;28;20052;-70
2021/08/15 09:35:23;;;;;;;10.95;4.25;;;;;;;25.21;46.66;100302.91;20742559;28;20038;-71
2021/08/15 09:45:55;;;;;;;10.15;4.32;;;;;;;25.56;47.03;100300.09;20742621;28;20477;-70
2021/08/15 09:55:57;;;;;;;8.82;3.97;;;;;;;25.87;45.58;100298.50;20740420;28;20489;-70
2021/08/15 10:05:59;;;;;;;9.07;5.18;;;;;;;26.19;45.29;100282.47;20736813;28;20455;-71
2021/08/15 10:16:05;;;;;;;10.07;4.30;;;;;;;26.30;45.46;100285.13;20689144;28;20523;-71
2021/08/15 10:26:26;;;;;;;11.68;4.55;;;;;;;26.76;43.23;100275.88;20657737;28;20502;-71
2021/08/15 10:36:31;;;;;;;12.23;4.80;;;;;;;26.62;43.13;100253.88;20657660;28;20492;-70
2021/08/15 10:46:33;;;;;;;9.60;4.18;;;;;;;27.18;43.17;100222.13;20667144;28;20052;-68
2021/08/15 10:56:52;;;;;;;10.73;4.80;;;;;;;27.65;43.84;100217.06;20820780;28;20081;-71
2021/08/15 11:06:55;;;;;;;12.68;4.80;;;;;;;27.55;41.68;100197.34;20817968;28;20119;-72
2021/08/15 11:17:11;;;;;;;12.00;4.75;;;;;;;27.76;41.66;100191.91;20759959;28;20397;-72
2021/08/15 11:27:30;;;;;;;9.40;4.97;;;;;;;27.77;43.47;100175.59;20736556;28;20452;-72
2021/08/15 11:37:35;;;;;;;9.27;4.60;;;;;;;27.92;43.12;100153.66;20736014;28;20104;-71
2021/08/15 11:47:40;;;;;;;9.15;4.13;;;;;;;27.82;43.36;100134.81;20736742;28;20049;-69
2021/08/15 11:57:52;;;;;;;8.82;4.68;;;;;;;28.10;42.28;100133.13;20741009;28;20132;-69
2021/08/15 12:08:01;;;;;;;8.10;4.90;;;;;;;28.47;42.69;100113.53;20751744;28;20045;-70
2021/08/15 12:18:05;;;;;;;10.45;5.47;;;;;;;28.67;41.09;100107.06;20681759;28;20053;-71
2021/08/15 12:28:11;;;;;;;10.45;4.85;;;;;;;28.56;41.20;100108.13;20668303;28;20335;-71
2021/08/15 12:38:29;;;;;;;9.02;5.40;;;;;;;28.79;42.21;100097.78;20666546;28;20432;-70
2021/08/15 12:48:31;;;;;;;9.57;5.10;;;;;;;28.86;42.24;100090.81;20666402;28;20050;-70
2021/08/15 12:58:33;;;;;;;7.20;5.00;;;;;;;29.04;42.15;100068.50;20665547;28;20046;-70
2021/08/15 13:08:35;;;;;;;9.02;5.22;;;;;;;28.83;41.63;100061.47;20662476;28;20042;-70
2021/08/15 13:18:37;;;;;;;10.20;5.03;;;;;;;28.73;43.49;100047.19;20735970;28;20046;-70
2021/08/15 13:28:38;;;;;;;7.43;5.13;;;;;;;29.38;42.56;100028.25;20744104;28;20488;-69
2021/08/15 13:38:41;;;;;;;9.70;4.87;;;;;;;29.31;42.34;100024.44;20726860;28;20037;-72
2021/08/15 13:48:43;;;;;;;10.80;5.65;;;;;;;29.40;41.71;100005.47;20743188;28;20058;-70
2021/08/15 13:58:45;;;;;;;7.10;4.90;;;;;;;29.64;41.83;99990.53;20742824;28;20104;-72
2021/08/15 14:08:47;;;;;;;10.43;6.03;;;;;;;29.60;42.18;99970.25;20740983;28;20049;-71
2021/08/15 14:18:48;;;;;;;8.40;4.93;;;;;;;29.70;42.66;99976.41;20666904;28;20050;-70
2021/08/15 14:28:53;;;;;;;11.00;5.85;;;;;;;29.74;42.52;99963.47;20659392;28;20054;-70
2021/08/15 14:38:55;;;;;;;11.57;6.20;;;;;;;29.65;43.46;99936.41;20657825;28;20100;-70
2021/08/15 14:48:57;;;;;;;10.82;5.95;;;;;;;29.38;43.72;99937.38;20657776;28;20483;-71
2021/08/15 14:59:00;;;;;;;9.45;6.07;;;;;;;29.60;43.78;99916.31;20657343;28;20089;-69
2021/08/15 15:09:02;;;;;;;9.93;5.93;;;;;;;29.38;44.49;99910.41;20656400;28;20121;-69
2021/08/15 15:19:04;;;;;;;10.13;5.60;;;;;;;29.52;42.82;99921.63;20732325;28;20492;-72
2021/08/15 15:29:06;;;;;;;14.77;7.20;;;;;;;29.90;42.85;99929.34;20736860;28;20316;-71
2021/08/15 15:39:08;;;;;;;14.53;6.27;;;;;;;30.26;42.75;99931.03;20751702;28;20092;-71
2021/08/15 15:49:10;;;;;;;9.18;6.38;;;;;;;30.19;44.41;99925.47;20752237;28;20484;-69
2021/08/15 15:59:12;;;;;;;9.97;6.70;;;;;;;30.00;45.03;99893.28;20751218;28;20042;-69
2021/08/15 16:09:15;;;;;;;12.23;7.38;;;;;;;29.80;45.46;99939.41;20811132;28;20790;-69
2021/08/15 16:19:17;;;;;;;9.13;6.40;;;;;;;29.81;46.82;99933.00;20752844;28;20081;-69
2021/08/15 16:29:18;;;;;;;10.75;6.22;;;;;;;29.13;49.03;99924.69;20746780;28;20050;-69
2021/08/15 16:39:20;;;;;;;11.52;6.50;;;;;;;28.61;50.75;99890.31;20746836;28;20068;-69
2021/08/15 16:49:22;;;;;;;9.70;5.85;;;;;;;28.20;51.40;99913.19;20743669;28;20396;-69
2021/08/15 16:59:25;;;;;;;11.20;5.82;;;;;;;27.88;52.46;99956.66;20744104;28;20053;-69
2021/08/15 17:09:27;;;;;;;10.00;6.33;;;;;;;27.39;55.00;99941.56;20743860;28;20041;-69
2021/08/15 17:19:29;;;;;;;13.40;6.80;;;;;;;26.94;58.61;99966.31;20664439;28;20100;-69
2021/08/15 17:29:31;;;;;;;11.43;6.17;;;;;;;26.34;61.36;99966.25;20662340;28;20058;-69
2021/08/15 17:39:33;;;;;;;8.98;4.82;;;;;;;24.27;67.01;99972.84;20660363;28;20057;-69
2021/08/15 17:49:35;;;;;;;10.88;4.97;;;;;;;23.89;70.13;99958.94;20660865;28;20113;-68
2021/08/15 17:59:37;;;;;;;12.18;5.38;;;;;;;23.98;74.40;99920.78;20663033;28;20074;-68
2021/08/15 18:09:42;;;;;;;11.15;5.55;;;;;;;23.83;74.42;99909.50;20657988;28;20456;-68
2021/08/15 18:19:43;;;;;;;10.82;5.60;;;;;;;23.42;77.05;99928.69;20658099;28;20054;-68
2021/08/15 18:29:45;;;;;;;12.43;5.72;;;;;;;22.81;78.93;99931.50;20656856;28;20050;-68
2021/08/15 18:39:48;;;;;;;10.45;6.10;;;;;;;22.86;78.84;99947.16;20656006;28;20563;-68
2021/08/15 18:49:50;;;;;;;11.80;6.80;;;;;;;22.62;79.46;99923.13;20656101;28;20097;-68
2021/08/15 18:59:54;;;;;;;11.65;5.60;;;;;;;22.50;78.04;99927.53;20655776;28;20630;-68
2021/08/15 19:09:57;;;;;;;14.43;6.78;;;;;;;22.44;78.83;99941.31;20668449;28;20105;-68
2021/08/15 19:19:59;;;;;;;9.80;5.68;;;;;;;22.15;78.89;99941.59;20752422;28;20077;-68
2021/08/15 19:30:01;;;;;;;11.30;5.60;;;;;;;21.97;79.02;99945.53;20753138;28;20053;-68
2021/08/15 19:40:09;;;;;;;10.35;6.53;;;;;;;22.00;78.86;99971.97;20750237;28;20057;-68
2021/08/15 19:50:19;;;;;;;11.52;6.35;;;;;;;21.89;78.93;99970.03;20751509;28;20484;-68
2021/08/15 20:00:21;;;;;;;10.55;5.60;;;;;;;21.77;78.98;99950.44;20748846;28;20050;-68
2021/08/15 20:10:23;;;;;;;9.75;5.18;;;;;;;21.64;78.91;99954.91;20743060;28;20046;-68
2021/08/15 20:20:25;;;;;;;11.40;6.15;;;;;;;21.36;78.85;99952.41;20667356;28;20042;-68
2021/08/15 20:30:27;;;;;;;10.02;5.18;;;;;;;21.19;78.77;99957.03;20675831;28;20050;-68
2021/08/15 20:40:29;;;;;;;8.68;5.32;;;;;;;21.06;79.09;99973.91;20667401;28;20047;-68
2021/08/15 20:50:32;;;;;;;9.55;5.28;;;;;;;20.99;79.46;99969.00;20664566;28;20053;-68
2021/08/15 21:00:34;;;;;;;11.27;5.88;;;;;;;20.95;79.05;99979.94;20664593;28;20100;-69
2021/08/15 21:10:35;;;;;;;11.70;5.13;;;;;;;20.75;79.23;99966.13;20669982;28;20048;-69
2021/08/15 21:20:38;;;;;;;7.70;4.65;;;;;;;20.41;80.72;99971.84;20744161;28;20050;-69
2021/08/15 21:30:39;;;;;;;9.18;5.13;;;;;;;20.43;80.78;99956.66;20742470;28;20046;-69
2021/08/15 21:40:41;;;;;;;11.90;5.50;;;;;;;20.46;80.93;99948.50;20743602;28;20053;-69
2021/08/15 21:50:44;;;;;;;8.50;5.13;;;;;;;20.35;81.03;99948.31;20742676;28;20073;-69
2021/08/15 22:00:46;;;;;;;9.35;4.80;;;;;;;20.38;81.09;99941.00;20741467;28;20042;-69
2021/08/15 22:10:48;;;;;;;8.07;4.90;;;;;;;20.31;80.79;99942.34;20740214;28;20187;-68
2021/08/15 22:20:50;;;;;;;10.13;5.05;;;;;;;20.29;81.26;99951.38;20739604;28;20471;-70
2021/08/15 22:30:52;;;;;;;8.98;5.10;;;;;;;20.22;81.04;99962.41;20738674;28;20050;-69
2021/08/15 22:40:53;;;;;;;9.52;5.38;;;;;;;20.14;81.24;99940.75;20738080;28;20393;-69
2021/08/15 22:50:55;;;;;;;9.20;5.13;;;;;;;20.14;81.03;99942.56;20737667;28;20045;-68
2021/08/15 23:00:58;;;;;;;10.80;5.30;;;;;;;20.06;81.43;99928.88;20736507;28;20049;-69
2021/08/15 23:11:02;;;;;;;8.48;5.13;;;;;;;20.01;81.63;99921.19;20736636;28;20048;-69
2021/08/15 23:21:04;;;;;;;8.18;4.72;;;;;;;19.93;81.87;99923.47;20735972;28;20053;-69
2021/08/15 23:31:06;;;;;;;8.23;5.13;;;;;;;19.81;82.08;99903.00;20735694;28;20074;-68
2021/08/15 23:41:08;;;;;;;8.48;5.43;;;;;;;19.78;82.11;99901.38;20735842;28;20054;-68
2021/08/15 23:51:10;;;;;;;9.30;5.70;;;;;;;19.60;82.81;99890.09;20736576;28;20041;-68
